sensor_id;sensor_type;location;lat;lon;timestamp;P1;durP1;ratioP1;P2;durP2;ratioP2
40533;SDS011;26233;51.894;10.192;2024-02-26T00:01:58;1.00;;;0.70;;
40533;SDS011;26233;51.894;10.192;2024-02-26T00:04:25;3.47;;;0.77;;
40533;SDS011;26233;51.894;10.192;2024-02-26T00:06:52;0.77;;;0.77;;
40533;SDS011;26233;51.894;10.192;2024-02-26T00:09:21;0.70;;;0.70;;
40533;SDS011;26233;51.894;10.192;2024-02-26T00:11:48;0.83;;;0.80;;
40533;SDS011;26233;51.894;10.192;2024-02-26T00:14:15;0.93;;;0.87;;
40533;SDS011;26233;51.894;10.192;2024-02-26T00:16:44;1.00;;;0.80;;
40533;SDS011;26233;51.894;10.192;2024-02-26T00:19:11;0.93;;;0.90;;
40533;SDS011;26233;51.894;10.192;2024-02-26T00:21:39;0.97;;;0.90;;
40533;SDS011;26233;51.894;10.192;2024-02-26T00:24:07;0.70;;;0.70;;
40533;SDS011;26233;51.894;10.192;2024-02-26T00:26:34;0.80;;;0.80;;
40533;SDS011;26233;51.894;10.192;2024-02-26T00:29:02;0.80;;;0.70;;
40533;SDS011;26233;51.894;10.192;2024-02-26T00:31:29;1.00;;;0.90;;
40533;SDS011;26233;51.894;10.192;2024-02-26T00:33:58;0.87;;;0.80;;
40533;SDS011;26233;51.894;10.192;2024-02-26T00:36:25;0.90;;;0.83;;
40533;SDS011;26233;51.894;10.192;2024-02-26T00:38:52;0.63;;;0.63;;
40533;SDS011;26233;51.894;10.192;2024-02-26T00:41:20;1.03;;;0.90;;
40533;SDS011;26233;51.894;10.192;2024-02-26T00:43:47;0.80;;;0.80;;
40533;SDS011;26233;51.894;10.192;2024-02-26T00:46:14;0.70;;;0.70;;
40533;SDS011;26233;51.894;10.192;2024-02-26T00:48:42;1.07;;;0.97;;
40533;SDS011;26233;51.894;10.192;2024-02-26T00:51:10;0.70;;;0.70;;
40533;SDS011;26233;51.894;10.192;2024-02-26T00:53:38;0.80;;;0.80;;
40533;SDS011;26233;51.894;10.192;2024-02-26T00:56:05;0.70;;;0.70;;
40533;SDS011;26233;51.894;10.192;2024-02-26T00:58:32;0.60;;;0.60;;
40533;SDS011;26233;51.894;10.192;2024-02-26T01:01:00;0.77;;;0.77;;
40533;SDS011;26233;51.894;10.192;2024-02-26T01:03:28;0.97;;;0.80;;
40533;SDS011;26233;51.894;10.192;2024-02-26T01:05:55;1.00;;;0.90;;
40533;SDS011;26233;51.894;10.192;2024-02-26T01:08:23;1.43;;;0.90;;
40533;SDS011;26233;51.894;10.192;2024-02-26T01:10:51;1.03;;;0.97;;
40533;SDS011;26233;51.894;10.192;2024-02-26T01:13:18;2.13;;;1.20;;
40533;SDS011;26233;51.894;10.192;2024-02-26T01:15:45;1.27;;;1.17;;
40533;SDS011;26233;51.894;10.192;2024-02-26T01:18:13;0.93;;;0.90;;
40533;SDS011;26233;51.894;10.192;2024-02-26T01:20:40;1.10;;;1.00;;
40533;SDS011;26233;51.894;10.192;2024-02-26T01:23:07;1.30;;;1.20;;
40533;SDS011;26233;51.894;10.192;2024-02-26T01:25:36;1.23;;;1.07;;
40533;SDS011;26233;51.894;10.192;2024-02-26T01:28:04;1.17;;;0.90;;
40533;SDS011;26233;51.894;10.192;2024-02-26T01:30:32;0.90;;;0.90;;
40533;SDS011;26233;51.894;10.192;2024-02-26T01:32:59;0.90;;;0.90;;
40533;SDS011;26233;51.894;10.192;2024-02-26T01:35:26;1.30;;;1.10;;
40533;SDS011;26233;51.894;10.192;2024-02-26T01:37:53;0.97;;;0.97;;
40533;SDS011;26233;51.894;10.192;2024-02-26T01:40:20;1.10;;;1.00;;
40533;SDS011;26233;51.894;10.192;2024-02-26T01:42:49;1.07;;;0.97;;
40533;SDS011;26233;51.894;10.192;2024-02-26T01:45:19;1.43;;;1.00;;
40533;SDS011;26233;51.894;10.192;2024-02-26T01:47:49;1.10;;;1.00;;
40533;SDS011;26233;51.894;10.192;2024-02-26T01:50:17;1.00;;;1.00;;
40533;SDS011;26233;51.894;10.192;2024-02-26T01:52:45;1.17;;;1.00;;
40533;SDS011;26233;51.894;10.192;2024-02-26T01:55:13;1.20;;;1.10;;
40533;SDS011;26233;51.894;10.192;2024-02-26T01:57:42;1.10;;;1.00;;
40533;SDS011;26233;51.894;10.192;2024-02-26T02:00:13;1.67;;;0.97;;
40533;SDS011;26233;51.894;10.192;2024-02-26T02:02:42;0.90;;;0.90;;
40533;SDS011;26233;51.894;10.192;2024-02-26T02:05:12;1.10;;;1.00;;
40533;SDS011;26233;51.894;10.192;2024-02-26T02:07:41;0.90;;;0.90;;
40533;SDS011;26233;51.894;10.192;2024-02-26T02:10:08;1.20;;;0.93;;
40533;SDS011;26233;51.894;10.192;2024-02-26T02:12:36;1.10;;;1.00;;
40533;SDS011;26233;51.894;10.192;2024-02-26T02:15:05;1.20;;;1.10;;
40533;SDS011;26233;51.894;10.192;2024-02-26T02:17:35;1.10;;;1.00;;
40533;SDS011;26233;51.894;10.192;2024-02-26T02:20:03;1.50;;;1.10;;
40533;SDS011;26233;51.894;10.192;2024-02-26T02:22:36;0.90;;;0.90;;
40533;SDS011;26233;51.894;10.192;2024-02-26T02:25:04;0.83;;;0.83;;
40533;SDS011;26233;51.894;10.192;2024-02-26T02:27:32;1.00;;;1.00;;
40533;SDS011;26233;51.894;10.192;2024-02-26T02:29:59;1.10;;;1.00;;
40533;SDS011;26233;51.894;10.192;2024-02-26T02:32:27;1.10;;;1.00;;
40533;SDS011;26233;51.894;10.192;2024-02-26T02:34:56;1.10;;;1.00;;
40533;SDS011;26233;51.894;10.192;2024-02-26T02:37:24;1.03;;;0.93;;
40533;SDS011;26233;51.894;10.192;2024-02-26T02:39:52;1.17;;;1.00;;
40533;SDS011;26233;51.894;10.192;2024-02-26T02:42:20;1.00;;;0.90;;
40533;SDS011;26233;51.894;10.192;2024-02-26T02:44:47;1.20;;;1.10;;
40533;SDS011;26233;51.894;10.192;2024-02-26T02:47:14;1.10;;;0.90;;
40533;SDS011;26233;51.894;10.192;2024-02-26T02:49:41;1.00;;;0.90;;
40533;SDS011;26233;51.894;10.192;2024-02-26T02:52:09;1.20;;;1.10;;
40533;SDS011;26233;51.894;10.192;2024-02-26T02:54:36;1.00;;;1.00;;
40533;SDS011;26233;51.894;10.192;2024-02-26T02:57:07;1.20;;;1.10;;
40533;SDS011;26233;51.894;10.192;2024-02-26T02:59:34;1.00;;;0.90;;
40533;SDS011;26233;51.894;10.192;2024-02-26T03:02:02;0.97;;;0.93;;
40533;SDS011;26233;51.894;10.192;2024-02-26T03:04:30;1.03;;;1.00;;
40533;SDS011;26233;51.894;10.192;2024-02-26T03:06:57;1.20;;;1.10;;
40533;SDS011;26233;51.894;10.192;2024-02-26T03:09:25;1.40;;;1.07;;
40533;SDS011;26233;51.894;10.192;2024-02-26T03:11:52;1.00;;;0.90;;
40533;SDS011;26233;51.894;10.192;2024-02-26T03:14:21;0.83;;;0.83;;
40533;SDS011;26233;51.894;10.192;2024-02-26T03:16:49;1.03;;;0.97;;
40533;SDS011;26233;51.894;10.192;2024-02-26T03:19:16;0.93;;;0.90;;
40533;SDS011;26233;51.894;10.192;2024-02-26T03:21:43;1.20;;;1.00;;
40533;SDS011;26233;51.894;10.192;2024-02-26T03:24:10;0.93;;;0.90;;
40533;SDS011;26233;51.894;10.192;2024-02-26T03:26:38;1.03;;;0.93;;
40533;SDS011;26233;51.894;10.192;2024-02-26T03:29:05;1.10;;;1.00;;
40533;SDS011;26233;51.894;10.192;2024-02-26T03:31:33;3.07;;;2.77;;
40533;SDS011;26233;51.894;10.192;2024-02-26T03:34:01;4.93;;;3.60;;
40533;SDS011;26233;51.894;10.192;2024-02-26T03:36:28;2.53;;;2.27;;
40533;SDS011;26233;51.894;10.192;2024-02-26T03:38:55;1.90;;;1.63;;
40533;SDS011;26233;51.894;10.192;2024-02-26T03:41:22;2.03;;;1.73;;
40533;SDS011;26233;51.894;10.192;2024-02-26T03:43:50;1.47;;;1.37;;
40533;SDS011;26233;51.894;10.192;2024-02-26T03:46:17;1.80;;;1.50;;
40533;SDS011;26233;51.894;10.192;2024-02-26T03:48:45;1.67;;;1.57;;
40533;SDS011;26233;51.894;10.192;2024-02-26T03:51:13;2.03;;;1.83;;
40533;SDS011;26233;51.894;10.192;2024-02-26T03:53:40;2.07;;;1.87;;
40533;SDS011;26233;51.894;10.192;2024-02-26T03:56:07;1.70;;;1.60;;
40533;SDS011;26233;51.894;10.192;2024-02-26T03:58:35;2.47;;;2.27;;
40533;SDS011;26233;51.894;10.192;2024-02-26T04:01:02;2.53;;;2.33;;
40533;SDS011;26233;51.894;10.192;2024-02-26T04:03:30;3.10;;;2.90;;
40533;SDS011;26233;51.894;10.192;2024-02-26T04:05:58;2.93;;;2.73;;
40533;SDS011;26233;51.894;10.192;2024-02-26T04:08:25;2.90;;;2.70;;
40533;SDS011;26233;51.894;10.192;2024-02-26T04:10:53;2.40;;;2.20;;
40533;SDS011;26233;51.894;10.192;2024-02-26T04:13:20;2.93;;;2.10;;
40533;SDS011;26233;51.894;10.192;2024-02-26T04:15:47;2.30;;;2.20;;
40533;SDS011;26233;51.894;10.192;2024-02-26T04:18:14;1.70;;;1.60;;
40533;SDS011;26233;51.894;10.192;2024-02-26T04:20:42;1.80;;;1.70;;
40533;SDS011;26233;51.894;10.192;2024-02-26T04:23:10;1.83;;;1.70;;
40533;SDS011;26233;51.894;10.192;2024-02-26T04:25:37;2.30;;;2.10;;
40533;SDS011;26233;51.894;10.192;2024-02-26T04:28:05;2.80;;;2.60;;
40533;SDS011;26233;51.894;10.192;2024-02-26T04:30:32;2.80;;;2.60;;
40533;SDS011;26233;51.894;10.192;2024-02-26T04:32:59;3.07;;;2.77;;
40533;SDS011;26233;51.894;10.192;2024-02-26T04:35:26;2.90;;;2.70;;
40533;SDS011;26233;51.894;10.192;2024-02-26T04:37:53;2.80;;;2.60;;
40533;SDS011;26233;51.894;10.192;2024-02-26T04:40:22;2.30;;;2.10;;
40533;SDS011;26233;51.894;10.192;2024-02-26T04:42:49;2.50;;;2.30;;
40533;SDS011;26233;51.894;10.192;2024-02-26T04:45:16;2.07;;;1.80;;
40533;SDS011;26233;51.894;10.192;2024-02-26T04:47:43;1.87;;;1.77;;
40533;SDS011;26233;51.894;10.192;2024-02-26T04:50:11;2.10;;;1.90;;
40533;SDS011;26233;51.894;10.192;2024-02-26T04:52:38;1.73;;;1.63;;
40533;SDS011;26233;51.894;10.192;2024-02-26T04:55:06;1.80;;;1.70;;
40533;SDS011;26233;51.894;10.192;2024-02-26T04:57:35;1.50;;;1.40;;
40533;SDS011;26233;51.894;10.192;2024-02-26T05:00:02;2.07;;;1.50;;
40533;SDS011;26233;51.894;10.192;2024-02-26T05:02:31;1.33;;;1.10;;
40533;SDS011;26233;51.894;10.192;2024-02-26T05:05:03;1.00;;;0.90;;
40533;SDS011;26233;51.894;10.192;2024-02-26T05:07:31;1.63;;;1.10;;
40533;SDS011;26233;51.894;10.192;2024-02-26T05:09:58;1.20;;;1.10;;
40533;SDS011;26233;51.894;10.192;2024-02-26T05:12:25;1.60;;;1.00;;
40533;SDS011;26233;51.894;10.192;2024-02-26T05:14:56;1.40;;;1.30;;
40533;SDS011;26233;51.894;10.192;2024-02-26T05:17:24;1.67;;;1.40;;
40533;SDS011;26233;51.894;10.192;2024-02-26T05:19:51;2.00;;;1.80;;
40533;SDS011;26233;51.894;10.192;2024-02-26T05:22:18;2.50;;;1.80;;
40533;SDS011;26233;51.894;10.192;2024-02-26T05:24:45;2.50;;;2.30;;
40533;SDS011;26233;51.894;10.192;2024-02-26T05:27:12;3.27;;;2.97;;
40533;SDS011;26233;51.894;10.192;2024-02-26T05:29:40;3.77;;;3.47;;
40533;SDS011;26233;51.894;10.192;2024-02-26T05:32:08;4.30;;;3.80;;
40533;SDS011;26233;51.894;10.192;2024-02-26T05:34:35;4.03;;;3.63;;
40533;SDS011;26233;51.894;10.192;2024-02-26T05:37:03;4.73;;;4.07;;
40533;SDS011;26233;51.894;10.192;2024-02-26T05:39:30;4.60;;;3.90;;
40533;SDS011;26233;51.894;10.192;2024-02-26T05:41:57;4.33;;;3.90;;
40533;SDS011;26233;51.894;10.192;2024-02-26T05:44:26;4.53;;;3.70;;
40533;SDS011;26233;51.894;10.192;2024-02-26T05:46:53;4.30;;;3.87;;
40533;SDS011;26233;51.894;10.192;2024-02-26T05:49:22;4.17;;;3.77;;
40533;SDS011;26233;51.894;10.192;2024-02-26T05:51:50;4.33;;;3.93;;
40533;SDS011;26233;51.894;10.192;2024-02-26T05:54:17;4.13;;;3.43;;
40533;SDS011;26233;51.894;10.192;2024-02-26T05:56:44;3.60;;;3.30;;
40533;SDS011;26233;51.894;10.192;2024-02-26T05:59:11;3.60;;;3.30;;
40533;SDS011;26233;51.894;10.192;2024-02-26T06:01:40;3.93;;;3.57;;
40533;SDS011;26233;51.894;10.192;2024-02-26T06:04:07;4.03;;;3.73;;
40533;SDS011;26233;51.894;10.192;2024-02-26T06:06:36;4.23;;;3.83;;
40533;SDS011;26233;51.894;10.192;2024-02-26T06:09:03;4.23;;;3.33;;
40533;SDS011;26233;51.894;10.192;2024-02-26T06:11:31;4.63;;;4.23;;
40533;SDS011;26233;51.894;10.192;2024-02-26T06:13:58;4.53;;;4.13;;
40533;SDS011;26233;51.894;10.192;2024-02-26T06:16:25;4.20;;;3.80;;
40533;SDS011;26233;51.894;10.192;2024-02-26T06:18:52;4.13;;;3.83;;
40533;SDS011;26233;51.894;10.192;2024-02-26T06:21:20;4.37;;;3.97;;
40533;SDS011;26233;51.894;10.192;2024-02-26T06:23:48;3.70;;;3.40;;
40533;SDS011;26233;51.894;10.192;2024-02-26T06:26:15;3.20;;;2.90;;
40533;SDS011;26233;51.894;10.192;2024-02-26T06:28:43;3.37;;;3.07;;
40533;SDS011;26233;51.894;10.192;2024-02-26T06:31:10;5.07;;;3.50;;
40533;SDS011;26233;51.894;10.192;2024-02-26T06:33:37;3.60;;;3.30;;
40533;SDS011;26233;51.894;10.192;2024-02-26T06:36:04;4.30;;;3.90;;
40533;SDS011;26233;51.894;10.192;2024-02-26T06:38:32;4.60;;;4.20;;
40533;SDS011;26233;51.894;10.192;2024-02-26T06:41:01;4.60;;;3.90;;
40533;SDS011;26233;51.894;10.192;2024-02-26T06:43:28;4.00;;;3.60;;
40533;SDS011;26233;51.894;10.192;2024-02-26T06:45:56;4.03;;;3.63;;
40533;SDS011;26233;51.894;10.192;2024-02-26T06:48:23;3.45;;;3.17;;
40533;SDS011;26233;51.894;10.192;2024-02-26T06:50:50;3.17;;;2.95;;
40533;SDS011;26233;51.894;10.192;2024-02-26T06:53:17;3.20;;;2.90;;
40533;SDS011;26233;51.894;10.192;2024-02-26T06:55:44;3.10;;;2.80;;
40533;SDS011;26233;51.894;10.192;2024-02-26T06:58:13;2.90;;;2.67;;
40533;SDS011;26233;51.894;10.192;2024-02-26T07:00:40;3.65;;;3.28;;
40533;SDS011;26233;51.894;10.192;2024-02-26T07:03:08;3.58;;;3.28;;
40533;SDS011;26233;51.894;10.192;2024-02-26T07:05:35;4.23;;;3.63;;
40533;SDS011;26233;51.894;10.192;2024-02-26T07:08:03;3.37;;;3.10;;
40533;SDS011;26233;51.894;10.192;2024-02-26T07:10:30;3.73;;;3.30;;
40533;SDS011;26233;51.894;10.192;2024-02-26T07:12:58;3.00;;;2.77;;
40533;SDS011;26233;51.894;10.192;2024-02-26T07:15:27;2.95;;;2.70;;
40533;SDS011;26233;51.894;10.192;2024-02-26T07:17:54;3.23;;;2.87;;
40533;SDS011;26233;51.894;10.192;2024-02-26T07:20:21;2.83;;;2.63;;
40533;SDS011;26233;51.894;10.192;2024-02-26T07:22:49;2.97;;;2.70;;
40533;SDS011;26233;51.894;10.192;2024-02-26T07:25:17;2.90;;;2.55;;
40533;SDS011;26233;51.894;10.192;2024-02-26T07:27:44;3.17;;;2.88;;
40533;SDS011;26233;51.894;10.192;2024-02-26T07:30:11;3.03;;;2.72;;
40533;SDS011;26233;51.894;10.192;2024-02-26T07:32:42;3.22;;;2.92;;
40533;SDS011;26233;51.894;10.192;2024-02-26T07:35:10;3.17;;;2.80;;
40533;SDS011;26233;51.894;10.192;2024-02-26T07:37:37;3.03;;;2.72;;
40533;SDS011;26233;51.894;10.192;2024-02-26T07:40:04;3.50;;;3.20;;
40533;SDS011;26233;51.894;10.192;2024-02-26T07:42:33;3.70;;;3.10;;
40533;SDS011;26233;51.894;10.192;2024-02-26T07:45:01;3.25;;;2.97;;
40533;SDS011;26233;51.894;10.192;2024-02-26T07:47:29;4.25;;;3.10;;
40533;SDS011;26233;51.894;10.192;2024-02-26T07:49:58;3.50;;;3.20;;
40533;SDS011;26233;51.894;10.192;2024-02-26T07:52:25;4.03;;;3.63;;
40533;SDS011;26233;51.894;10.192;2024-02-26T07:54:52;4.13;;;3.72;;
40533;SDS011;26233;51.894;10.192;2024-02-26T07:57:19;4.30;;;3.90;;
40533;SDS011;26233;51.894;10.192;2024-02-26T07:59:46;3.83;;;3.53;;
40533;SDS011;26233;51.894;10.192;2024-02-26T08:02:15;4.10;;;3.70;;
40533;SDS011;26233;51.894;10.192;2024-02-26T08:04:42;4.00;;;3.70;;
40533;SDS011;26233;51.894;10.192;2024-02-26T08:07:10;4.28;;;3.88;;
40533;SDS011;26233;51.894;10.192;2024-02-26T08:09:38;3.85;;;3.53;;
40533;SDS011;26233;51.894;10.192;2024-02-26T08:12:05;4.10;;;3.70;;
40533;SDS011;26233;51.894;10.192;2024-02-26T08:14:33;3.80;;;3.50;;
40533;SDS011;26233;51.894;10.192;2024-02-26T08:17:00;4.45;;;4.05;;
40533;SDS011;26233;51.894;10.192;2024-02-26T08:19:27;3.92;;;3.63;;
40533;SDS011;26233;51.894;10.192;2024-02-26T08:21:54;5.13;;;4.28;;
40533;SDS011;26233;51.894;10.192;2024-02-26T08:24:23;4.35;;;3.95;;
40533;SDS011;26233;51.894;10.192;2024-02-26T08:26:51;5.05;;;4.55;;
40533;SDS011;26233;51.894;10.192;2024-02-26T08:29:18;5.45;;;4.95;;
40533;SDS011;26233;51.894;10.192;2024-02-26T08:31:45;6.13;;;5.53;;
40533;SDS011;26233;51.894;10.192;2024-02-26T08:34:13;6.55;;;5.30;;
40533;SDS011;26233;51.894;10.192;2024-02-26T08:36:40;6.28;;;5.68;;
40533;SDS011;26233;51.894;10.192;2024-02-26T08:39:08;6.50;;;5.78;;
40533;SDS011;26233;51.894;10.192;2024-02-26T08:41:37;7.00;;;6.28;;
40533;SDS011;26233;51.894;10.192;2024-02-26T08:44:04;7.15;;;6.47;;
40533;SDS011;26233;51.894;10.192;2024-02-26T08:46:31;8.38;;;6.90;;
40533;SDS011;26233;51.894;10.192;2024-02-26T08:48:58;6.70;;;6.10;;
40533;SDS011;26233;51.894;10.192;2024-02-26T08:51:25;6.93;;;6.25;;
40533;SDS011;26233;51.894;10.192;2024-02-26T08:53:52;8.23;;;6.95;;
40533;SDS011;26233;51.894;10.192;2024-02-26T08:56:20;7.80;;;7.05;;
40533;SDS011;26233;51.894;10.192;2024-02-26T08:58:49;8.52;;;7.50;;
40533;SDS011;26233;51.894;10.192;2024-02-26T09:01:18;8.30;;;7.50;;
40533;SDS011;26233;51.894;10.192;2024-02-26T09:03:46;7.65;;;6.95;;
40533;SDS011;26233;51.894;10.192;2024-02-26T09:06:14;7.20;;;6.50;;
40533;SDS011;26233;51.894;10.192;2024-02-26T09:08:41;6.70;;;6.10;;
40533;SDS011;26233;51.894;10.192;2024-02-26T09:11:09;7.32;;;6.63;;
40533;SDS011;26233;51.894;10.192;2024-02-26T09:13:36;7.30;;;6.60;;
40533;SDS011;26233;51.894;10.192;2024-02-26T09:16:05;7.13;;;6.53;;
40533;SDS011;26233;51.894;10.192;2024-02-26T09:18:32;7.57;;;6.88;;
40533;SDS011;26233;51.894;10.192;2024-02-26T09:21:00;7.20;;;6.50;;
40533;SDS011;26233;51.894;10.192;2024-02-26T09:23:31;7.80;;;7.00;;
40533;SDS011;26233;51.894;10.192;2024-02-26T09:26:00;8.23;;;6.70;;
40533;SDS011;26233;51.894;10.192;2024-02-26T09:28:27;7.47;;;6.78;;
40533;SDS011;26233;51.894;10.192;2024-02-26T09:30:57;6.97;;;6.38;;
40533;SDS011;26233;51.894;10.192;2024-02-26T09:33:25;7.70;;;6.97;;
40533;SDS011;26233;51.894;10.192;2024-02-26T09:35:53;7.95;;;7.15;;
40533;SDS011;26233;51.894;10.192;2024-02-26T09:38:20;7.53;;;6.85;;
40533;SDS011;26233;51.894;10.192;2024-02-26T09:40:49;7.93;;;7.22;;
40533;SDS011;26233;51.894;10.192;2024-02-26T09:43:16;8.60;;;7.80;;
40533;SDS011;26233;51.894;10.192;2024-02-26T09:45:49;7.38;;;6.68;;
40533;SDS011;26233;51.894;10.192;2024-02-26T09:48:17;8.18;;;7.38;;
40533;SDS011;26233;51.894;10.192;2024-02-26T09:50:46;8.25;;;7.50;;
40533;SDS011;26233;51.894;10.192;2024-02-26T09:53:13;8.07;;;7.38;;
40533;SDS011;26233;51.894;10.192;2024-02-26T09:55:41;8.32;;;7.53;;
40533;SDS011;26233;51.894;10.192;2024-02-26T09:58:08;8.30;;;7.43;;
40533;SDS011;26233;51.894;10.192;2024-02-26T10:00:43;7.85;;;7.15;;
40533;SDS011;26233;51.894;10.192;2024-02-26T10:03:18;9.00;;;8.05;;
40533;SDS011;26233;51.894;10.192;2024-02-26T10:05:51;8.48;;;7.68;;
40533;SDS011;26233;51.894;10.192;2024-02-26T10:08:21;8.85;;;7.95;;
40533;SDS011;26233;51.894;10.192;2024-02-26T10:10:48;8.30;;;7.50;;
40533;SDS011;26233;51.894;10.192;2024-02-26T10:13:16;9.30;;;8.40;;
40533;SDS011;26233;51.894;10.192;2024-02-26T10:15:45;10.48;;;8.77;;
40533;SDS011;26233;51.894;10.192;2024-02-26T10:18:12;9.73;;;8.82;;
40533;SDS011;26233;51.894;10.192;2024-02-26T10:20:40;10.15;;;8.90;;
40533;SDS011;26233;51.894;10.192;2024-02-26T10:23:08;9.98;;;9.07;;
40533;SDS011;26233;51.894;10.192;2024-02-26T10:25:36;8.57;;;7.78;;
40533;SDS011;26233;51.894;10.192;2024-02-26T10:28:04;9.77;;;8.98;;
40533;SDS011;26233;51.894;10.192;2024-02-26T10:30:36;9.80;;;8.88;;
40533;SDS011;26233;51.894;10.192;2024-02-26T10:33:03;9.32;;;8.35;;
40533;SDS011;26233;51.894;10.192;2024-02-26T10:35:31;9.32;;;8.52;;
40533;SDS011;26233;51.894;10.192;2024-02-26T10:38:00;9.35;;;8.55;;
40533;SDS011;26233;51.894;10.192;2024-02-26T10:40:28;9.40;;;8.38;;
40533;SDS011;26233;51.894;10.192;2024-02-26T10:42:55;9.55;;;8.65;;
40533;SDS011;26233;51.894;10.192;2024-02-26T10:45:25;8.98;;;8.18;;
40533;SDS011;26233;51.894;10.192;2024-02-26T10:47:52;9.10;;;8.23;;
40533;SDS011;26233;51.894;10.192;2024-02-26T10:50:20;8.70;;;7.90;;
40533;SDS011;26233;51.894;10.192;2024-02-26T10:52:48;8.93;;;8.02;;
40533;SDS011;26233;51.894;10.192;2024-02-26T10:55:16;8.35;;;7.55;;
40533;SDS011;26233;51.894;10.192;2024-02-26T10:57:45;8.52;;;7.75;;
40533;SDS011;26233;51.894;10.192;2024-02-26T11:00:15;8.68;;;7.88;;
40533;SDS011;26233;51.894;10.192;2024-02-26T11:02:43;8.82;;;8.07;;
40533;SDS011;26233;51.894;10.192;2024-02-26T11:05:12;8.95;;;8.15;;
40533;SDS011;26233;51.894;10.192;2024-02-26T11:07:39;9.48;;;8.57;;
40533;SDS011;26233;51.894;10.192;2024-02-26T11:10:09;8.93;;;8.02;;
40533;SDS011;26233;51.894;10.192;2024-02-26T11:12:38;9.13;;;8.32;;
40533;SDS011;26233;51.894;10.192;2024-02-26T11:15:08;8.95;;;8.05;;
40533;SDS011;26233;51.894;10.192;2024-02-26T11:17:36;8.57;;;7.78;;
40533;SDS011;26233;51.894;10.192;2024-02-26T11:20:04;8.65;;;7.88;;
40533;SDS011;26233;51.894;10.192;2024-02-26T11:22:36;8.57;;;7.78;;
40533;SDS011;26233;51.894;10.192;2024-02-26T11:25:04;9.93;;;8.68;;
40533;SDS011;26233;51.894;10.192;2024-02-26T11:27:34;8.65;;;7.95;;
40533;SDS011;26233;51.894;10.192;2024-02-26T11:30:09;8.23;;;7.53;;
40533;SDS011;26233;51.894;10.192;2024-02-26T11:32:38;8.50;;;7.70;;
40533;SDS011;26233;51.894;10.192;2024-02-26T11:35:06;7.28;;;6.57;;
40533;SDS011;26233;51.894;10.192;2024-02-26T11:37:35;7.13;;;6.43;;
40533;SDS011;26233;51.894;10.192;2024-02-26T11:40:03;6.80;;;6.20;;
40533;SDS011;26233;51.894;10.192;2024-02-26T11:42:31;6.63;;;6.05;;
40533;SDS011;26233;51.894;10.192;2024-02-26T11:44:59;6.63;;;6.03;;
40533;SDS011;26233;51.894;10.192;2024-02-26T11:47:29;7.03;;;6.30;;
40533;SDS011;26233;51.894;10.192;2024-02-26T11:49:56;6.00;;;5.50;;
40533;SDS011;26233;51.894;10.192;2024-02-26T11:52:23;5.60;;;5.10;;
40533;SDS011;26233;51.894;10.192;2024-02-26T11:54:51;5.82;;;5.32;;
40533;SDS011;26233;51.894;10.192;2024-02-26T11:57:23;5.97;;;5.43;;
40533;SDS011;26233;51.894;10.192;2024-02-26T11:59:53;5.72;;;5.22;;
40533;SDS011;26233;51.894;10.192;2024-02-26T12:05:23;5.85;;;5.25;;
40533;SDS011;26233;51.894;10.192;2024-02-26T12:07:53;6.00;;;5.50;;
40533;SDS011;26233;51.894;10.192;2024-02-26T12:10:23;5.63;;;5.13;;
40533;SDS011;26233;51.894;10.192;2024-02-26T12:12:54;5.68;;;5.18;;
40533;SDS011;26233;51.894;10.192;2024-02-26T12:15:30;5.95;;;5.38;;
40533;SDS011;26233;51.894;10.192;2024-02-26T12:17:59;5.80;;;5.25;;
40533;SDS011;26233;51.894;10.192;2024-02-26T12:20:28;5.63;;;5.13;;
40533;SDS011;26233;51.894;10.192;2024-02-26T12:22:56;5.57;;;5.07;;
40533;SDS011;26233;51.894;10.192;2024-02-26T12:25:24;5.18;;;4.72;;
40533;SDS011;26233;51.894;10.192;2024-02-26T12:27:53;5.20;;;4.70;;
40533;SDS011;26233;51.894;10.192;2024-02-26T12:30:21;5.40;;;4.90;;
40533;SDS011;26233;51.894;10.192;2024-02-26T12:32:48;4.90;;;4.50;;
40533;SDS011;26233;51.894;10.192;2024-02-26T12:35:19;4.95;;;4.53;;
40533;SDS011;26233;51.894;10.192;2024-02-26T12:37:46;4.90;;;4.50;;
40533;SDS011;26233;51.894;10.192;2024-02-26T12:40:14;5.55;;;4.85;;
40533;SDS011;26233;51.894;10.192;2024-02-26T12:42:41;4.60;;;4.20;;
40533;SDS011;26233;51.894;10.192;2024-02-26T12:45:09;4.93;;;4.43;;
40533;SDS011;26233;51.894;10.192;2024-02-26T12:47:37;5.45;;;4.95;;
40533;SDS011;26233;51.894;10.192;2024-02-26T12:50:06;5.30;;;4.80;;
40533;SDS011;26233;51.894;10.192;2024-02-26T12:52:36;4.65;;;4.18;;
40533;SDS011;26233;51.894;10.192;2024-02-26T12:55:06;4.60;;;4.20;;
40533;SDS011;26233;51.894;10.192;2024-02-26T12:57:35;4.72;;;4.32;;
40533;SDS011;26233;51.894;10.192;2024-02-26T13:00:04;5.40;;;4.90;;
40533;SDS011;26233;51.894;10.192;2024-02-26T13:02:34;5.10;;;4.70;;
40533;SDS011;26233;51.894;10.192;2024-02-26T13:05:03;5.22;;;4.60;;
40533;SDS011;26233;51.894;10.192;2024-02-26T13:07:32;4.97;;;4.55;;
40533;SDS011;26233;51.894;10.192;2024-02-26T13:10:01;5.00;;;4.60;;
40533;SDS011;26233;51.894;10.192;2024-02-26T13:12:29;5.00;;;4.60;;
40533;SDS011;26233;51.894;10.192;2024-02-26T13:15:00;5.53;;;5.03;;
40533;SDS011;26233;51.894;10.192;2024-02-26T13:17:31;6.47;;;5.82;;
40533;SDS011;26233;51.894;10.192;2024-02-26T13:19:59;6.15;;;5.60;;
40533;SDS011;26233;51.894;10.192;2024-02-26T13:22:26;5.70;;;5.20;;
40533;SDS011;26233;51.894;10.192;2024-02-26T13:24:55;5.38;;;4.88;;
40533;SDS011;26233;51.894;10.192;2024-02-26T13:27:25;6.32;;;5.07;;
40533;SDS011;26233;51.894;10.192;2024-02-26T13:30:03;5.53;;;5.03;;
40533;SDS011;26233;51.894;10.192;2024-02-26T13:32:33;6.68;;;6.07;;
40533;SDS011;26233;51.894;10.192;2024-02-26T13:35:05;6.32;;;5.72;;
40533;SDS011;26233;51.894;10.192;2024-02-26T13:37:33;6.47;;;5.50;;
40533;SDS011;26233;51.894;10.192;2024-02-26T13:40:04;6.43;;;5.82;;
40533;SDS011;26233;51.894;10.192;2024-02-26T13:42:33;6.03;;;5.53;;
40533;SDS011;26233;51.894;10.192;2024-02-26T13:45:01;6.25;;;5.75;;
40533;SDS011;26233;51.894;10.192;2024-02-26T13:47:31;7.68;;;6.97;;
40533;SDS011;26233;51.894;10.192;2024-02-26T13:49:58;7.28;;;6.10;;
40533;SDS011;26233;51.894;10.192;2024-02-26T13:52:26;7.50;;;6.80;;
40533;SDS011;26233;51.894;10.192;2024-02-26T13:54:54;7.90;;;7.07;;
40533;SDS011;26233;51.894;10.192;2024-02-26T13:57:21;7.38;;;6.68;;
40533;SDS011;26233;51.894;10.192;2024-02-26T13:59:50;7.35;;;6.65;;
40533;SDS011;26233;51.894;10.192;2024-02-26T14:02:17;7.95;;;7.25;;
40533;SDS011;26233;51.894;10.192;2024-02-26T14:04:45;7.93;;;7.22;;
40533;SDS011;26233;51.894;10.192;2024-02-26T14:07:13;8.48;;;7.30;;
40533;SDS011;26233;51.894;10.192;2024-02-26T14:09:42;8.20;;;7.38;;
40533;SDS011;26233;51.894;10.192;2024-02-26T14:12:09;8.20;;;7.40;;
40533;SDS011;26233;51.894;10.192;2024-02-26T14:14:36;8.02;;;7.25;;
40533;SDS011;26233;51.894;10.192;2024-02-26T14:17:07;7.88;;;7.18;;
40533;SDS011;26233;51.894;10.192;2024-02-26T14:19:34;7.32;;;6.63;;
40533;SDS011;26233;51.894;10.192;2024-02-26T14:22:03;7.45;;;6.85;;
40533;SDS011;26233;51.894;10.192;2024-02-26T14:24:31;7.10;;;6.45;;
40533;SDS011;26233;51.894;10.192;2024-02-26T14:26:59;8.57;;;7.68;;
40533;SDS011;26233;51.894;10.192;2024-02-26T14:29:26;8.55;;;7.75;;
40533;SDS011;26233;51.894;10.192;2024-02-26T14:31:53;7.75;;;7.05;;
40533;SDS011;26233;51.894;10.192;2024-02-26T14:34:23;7.65;;;6.85;;
40533;SDS011;26233;51.894;10.192;2024-02-26T14:36:50;7.45;;;6.68;;
40533;SDS011;26233;51.894;10.192;2024-02-26T14:39:17;8.43;;;7.63;;
40533;SDS011;26233;51.894;10.192;2024-02-26T14:41:45;7.45;;;6.85;;